createdAt,value
2022-09-20T00:01:24.765Z,2.30
2022-09-20T00:03:55.006Z,2.40
2022-09-20T00:06:25.923Z,2.50
2022-09-20T00:08:53.572Z,2.43
2022-09-20T00:11:26.910Z,2.30
2022-09-20T00:13:56.433Z,2.10
2022-09-20T00:16:31.278Z,2.60
2022-09-20T00:19:00.300Z,2.47
2022-09-20T00:21:29.999Z,2.37
2022-09-20T00:23:58.208Z,2.50
2022-09-20T00:26:27.786Z,2.43
2022-09-20T00:28:55.842Z,2.17
2022-09-20T00:31:23.249Z,2.30
2022-09-20T00:34:13.721Z,2.20
2022-09-20T00:36:41.573Z,2.17
2022-09-20T00:39:11.803Z,2.10
2022-09-20T00:41:39.179Z,2.30
2022-09-20T00:44:40.292Z,2.43
2022-09-20T00:47:15.106Z,2.00
2022-09-20T00:49:42.576Z,2.13
2022-09-20T00:52:09.917Z,2.33
2022-09-20T00:54:37.453Z,1.90
2022-09-20T00:57:04.878Z,2.10
2022-09-20T00:59:40.896Z,2.30
2022-09-20T01:02:12.439Z,2.20
2022-09-20T01:04:42.797Z,2.10
2022-09-20T01:07:13.008Z,2.30
2022-09-20T01:09:40.336Z,2.50
2022-09-20T01:12:13.743Z,2.10
2022-09-20T01:14:44.047Z,2.20
2022-09-20T01:17:15.105Z,2.33
2022-09-20T01:19:57.495Z,2.30
2022-09-20T01:22:36.287Z,2.20
2022-09-20T01:25:39.255Z,2.50
2022-09-20T01:28:06.767Z,2.50
2022-09-20T01:31:22.744Z,2.60
2022-09-20T01:33:54.235Z,2.27
2022-09-20T01:36:33.434Z,2.20
2022-09-20T01:39:16.561Z,2.20
2022-09-20T01:42:06.629Z,2.30
2022-09-20T01:44:53.054Z,2.20
2022-09-20T01:47:47.817Z,2.20
2022-09-20T01:50:33.719Z,1.90
2022-09-20T01:53:38.778Z,2.27
2022-09-20T01:57:09.127Z,2.07
2022-09-20T01:59:45.050Z,2.30
2022-09-20T02:02:31.173Z,2.17
2022-09-20T02:05:18.958Z,2.10
2022-09-20T02:08:07.887Z,2.20
2022-09-20T02:10:40.790Z,2.10
2022-09-20T02:13:17.284Z,2.10
2022-09-20T02:16:21.552Z,2.10
2022-09-20T02:19:31.693Z,1.90
2022-09-20T02:22:29.969Z,2.00
2022-09-20T02:25:18.441Z,2.00
2022-09-20T02:28:00.062Z,2.00
2022-09-20T02:30:51.731Z,1.80
2022-09-20T02:33:49.919Z,2.00
2022-09-20T02:36:33.524Z,1.90
2022-09-20T02:39:15.672Z,1.80
2022-09-20T02:42:09.225Z,1.90
2022-09-20T02:44:51.654Z,1.90
2022-09-20T02:47:34.188Z,1.80
2022-09-20T02:50:41.817Z,2.00
2022-09-20T02:53:26.626Z,2.20
2022-09-20T02:56:38.381Z,2.00
2022-09-20T02:59:53.444Z,2.13
2022-09-20T03:02:51.393Z,2.20
2022-09-20T03:05:51.024Z,2.40
2022-09-20T03:08:22.061Z,2.57
2022-09-20T03:11:01.822Z,2.30
2022-09-20T03:13:53.662Z,2.40
2022-09-20T03:16:52.394Z,2.30
2022-09-20T03:19:59.526Z,2.30
2022-09-20T03:23:10.358Z,2.60
2022-09-20T03:25:49.584Z,2.60
2022-09-20T03:28:45.685Z,2.60
2022-09-20T03:31:31.007Z,2.80
2022-09-20T03:34:04.173Z,2.73
2022-09-20T03:36:58.687Z,3.00
2022-09-20T03:39:48.369Z,3.20
2022-09-20T03:42:23.184Z,3.33
2022-09-20T03:45:03.709Z,3.10
2022-09-20T03:47:52.238Z,3.30
2022-09-20T03:50:44.559Z,3.43
2022-09-20T03:53:34.166Z,3.20
2022-09-20T03:56:13.632Z,3.17
2022-09-20T03:59:18.301Z,3.30
2022-09-20T04:02:22.237Z,3.37
2022-09-20T04:05:14.265Z,3.10
2022-09-20T04:08:00.177Z,3.50
2022-09-20T04:11:09.088Z,3.60
2022-09-20T04:13:52.555Z,3.40
2022-09-20T04:16:27.683Z,3.50
2022-09-20T04:19:04.334Z,3.80
2022-09-20T04:21:50.223Z,3.60
2022-09-20T04:24:36.080Z,3.90
2022-09-20T04:27:23.739Z,4.23
2022-09-20T04:29:59.371Z,3.90
2022-09-20T04:32:37.546Z,4.00
2022-09-20T04:35:48.874Z,3.87
2022-09-20T04:38:19.749Z,3.50
2022-09-20T04:41:05.950Z,3.47
2022-09-20T04:43:51.817Z,3.33
2022-09-20T04:46:46.207Z,3.00
2022-09-20T04:49:19.297Z,2.93
2022-09-20T04:52:07.660Z,3.10
2022-09-20T04:54:56.617Z,3.37
2022-09-20T04:57:42.790Z,3.20
2022-09-20T05:00:18.616Z,3.33
2022-09-20T05:03:18.029Z,2.90
2022-09-20T05:06:09.720Z,3.27
2022-09-20T05:09:05.305Z,3.30
2022-09-20T05:11:54.268Z,3.10
2022-09-20T05:14:42.262Z,3.13
2022-09-20T05:17:46.905Z,3.40
2022-09-20T05:20:39.082Z,3.10
2022-09-20T05:23:33.407Z,3.40
2022-09-20T05:26:40.212Z,3.03
2022-09-20T05:29:33.964Z,3.27
2022-09-20T05:32:18.426Z,3.20
2022-09-20T05:35:04.796Z,3.40
2022-09-20T05:37:50.266Z,3.37
2022-09-20T05:40:36.572Z,3.33
2022-09-20T05:43:13.719Z,3.73
2022-09-20T05:46:04.248Z,3.53
2022-09-20T05:49:06.279Z,3.60
2022-09-20T05:51:46.220Z,3.87
2022-09-20T05:54:35.549Z,3.83
2022-09-20T05:57:21.407Z,3.93
2022-09-20T06:00:13.878Z,3.60
2022-09-20T06:02:52.002Z,4.10
2022-09-20T06:05:42.353Z,3.70
2022-09-20T06:08:28.213Z,4.50
2022-09-20T06:11:14.234Z,4.17
2022-09-20T06:14:03.882Z,4.60
2022-09-20T06:17:21.581Z,4.20
2022-09-20T06:20:11.421Z,4.47
2022-09-20T06:22:41.694Z,4.50
2022-09-20T06:25:09.022Z,5.87
2022-09-20T06:27:44.676Z,5.60
2022-09-20T06:30:34.814Z,5.20
2022-09-20T06:33:31.337Z,4.50
2022-09-20T06:36:36.336Z,4.00
2022-09-20T06:39:59.141Z,4.10
2022-09-20T06:42:27.564Z,4.07
2022-09-20T06:44:55.491Z,4.10
2022-09-20T06:47:23.343Z,4.40
2022-09-20T06:49:50.677Z,4.40
2022-09-20T06:52:20.543Z,4.37
2022-09-20T06:54:55.944Z,4.73
2022-09-20T06:57:36.260Z,5.00
2022-09-20T07:00:06.378Z,5.53
2022-09-20T07:02:33.829Z,4.67
2022-09-20T07:05:01.189Z,3.63
2022-09-20T07:07:28.576Z,3.77
2022-09-20T07:09:55.930Z,3.60
2022-09-20T07:12:23.408Z,3.60
2022-09-20T07:14:50.827Z,3.47
2022-09-20T07:17:18.130Z,3.47
2022-09-20T07:19:45.659Z,3.50
2022-09-20T07:22:12.968Z,3.70
2022-09-20T07:24:41.261Z,3.67
2022-09-20T07:27:11.506Z,4.30
2022-09-20T07:29:40.946Z,5.13
2022-09-20T07:32:08.582Z,5.10
2022-09-20T07:34:35.960Z,4.20
2022-09-20T07:37:03.341Z,3.87
2022-09-20T07:39:30.733Z,3.93
2022-09-20T07:41:58.086Z,4.10
2022-09-20T07:44:25.574Z,3.80
2022-09-20T07:46:54.852Z,3.90
2022-09-20T07:49:23.570Z,3.80
2022-09-20T07:51:51.538Z,3.93
2022-09-20T07:54:20.998Z,3.70
2022-09-20T07:56:48.414Z,3.70
2022-09-20T07:59:16.730Z,3.67
2022-09-20T08:01:45.927Z,3.70
2022-09-20T08:04:13.688Z,3.50
2022-09-20T08:06:44.048Z,3.73
2022-09-20T08:09:13.800Z,3.53
2022-09-20T08:11:42.840Z,3.30
2022-09-20T08:14:15.670Z,3.50
2022-09-20T08:16:48.546Z,3.30
2022-09-20T08:19:22.819Z,3.47
2022-09-20T08:21:52.635Z,3.60
2022-09-20T08:24:20.263Z,3.40
2022-09-20T08:26:48.529Z,3.50
2022-09-20T08:29:15.926Z,3.87
2022-09-20T08:31:43.773Z,3.60
2022-09-20T08:34:14.012Z,3.33
2022-09-20T08:36:45.673Z,3.30
2022-09-20T08:42:33.594Z,3.20
2022-09-20T08:45:21.857Z,3.30
2022-09-20T08:47:59.938Z,3.40
2022-09-20T08:50:28.101Z,3.30
2022-09-20T08:53:05.328Z,3.07
2022-09-20T08:55:37.607Z,3.10
2022-09-20T08:58:08.890Z,2.80
2022-09-20T09:00:38.618Z,3.10
2022-09-20T09:03:11.429Z,2.80
2022-09-20T09:05:46.576Z,2.70
2022-09-20T09:08:17.789Z,2.73
2022-09-20T09:11:08.470Z,2.83
2022-09-20T09:13:51.407Z,2.87
2022-09-20T09:16:27.305Z,2.97
2022-09-20T09:18:57.844Z,2.90
2022-09-20T09:21:29.040Z,2.73
2022-09-20T09:24:18.402Z,2.70
2022-09-20T09:26:46.595Z,2.80
2022-09-20T09:29:17.319Z,3.00
2022-09-20T09:31:48.565Z,2.90
2022-09-20T09:34:38.869Z,2.90
2022-09-20T09:37:06.281Z,2.60
2022-09-20T09:39:38.436Z,2.40
2022-09-20T09:42:23.788Z,1.70
2022-09-20T09:44:51.300Z,1.80
2022-09-20T09:47:29.520Z,1.73
2022-09-20T09:50:02.620Z,1.40
2022-09-20T09:52:33.432Z,1.40
2022-09-20T09:55:05.359Z,1.80
2022-09-20T09:57:52.011Z,1.93
2022-09-20T10:00:24.354Z,1.80
2022-09-20T10:03:06.566Z,1.40
2022-09-20T10:06:05.656Z,1.47
2022-09-20T10:09:06.685Z,1.70
2022-09-20T10:12:05.230Z,2.00
2022-09-20T10:15:10.705Z,2.00
2022-09-20T10:18:05.210Z,1.90
2022-09-20T10:20:53.331Z,2.00
2022-09-20T10:24:09.296Z,1.80
2022-09-20T10:27:03.149Z,1.70
2022-09-20T10:29:42.034Z,1.60
2022-09-20T10:32:18.971Z,1.50
2022-09-20T10:35:21.069Z,1.60
2022-09-20T10:38:12.332Z,1.00
2022-09-20T10:40:59.092Z,1.30
2022-09-20T10:43:38.188Z,1.60
2022-09-20T10:46:37.930Z,1.60
2022-09-20T10:49:27.580Z,2.00
2022-09-20T10:52:09.329Z,1.97
2022-09-20T10:54:57.660Z,1.90
2022-09-20T10:57:35.161Z,1.90
2022-09-20T11:00:21.464Z,2.40
2022-09-20T11:03:13.380Z,2.37
2022-09-20T11:05:54.472Z,2.00
2022-09-20T11:08:27.013Z,1.90
2022-09-20T11:11:32.884Z,1.50
2022-09-20T11:14:12.543Z,1.50
2022-09-20T11:16:53.265Z,1.40
2022-09-20T11:19:35.553Z,1.37
2022-09-20T11:22:08.110Z,1.33
2022-09-20T11:25:00.635Z,1.20
2022-09-20T11:27:43.253Z,1.00
2022-09-20T11:30:19.203Z,1.37
2022-09-20T11:32:49.338Z,2.20
2022-09-20T11:35:40.416Z,2.00
2022-09-20T11:38:13.483Z,1.77
2022-09-20T11:40:52.289Z,1.33
2022-09-20T11:43:21.199Z,1.83
2022-09-20T11:45:54.103Z,4.40
2022-09-20T11:48:47.681Z,2.97
2022-09-20T11:51:18.145Z,5.33
2022-09-20T11:54:22.992Z,3.67
2022-09-20T11:56:52.929Z,5.90
2022-09-20T11:59:38.610Z,9.30
2022-09-20T12:02:25.620Z,5.30
2022-09-20T12:04:53.535Z,2.00
2022-09-20T12:07:24.652Z,2.60
2022-09-20T12:10:34.189Z,2.63
2022-09-20T12:13:05.653Z,2.40
2022-09-20T12:15:35.022Z,3.07
2022-09-20T12:18:17.051Z,1.97
2022-09-20T12:20:45.098Z,4.20
2022-09-20T12:23:43.406Z,6.63
2022-09-20T12:26:22.605Z,3.30
2022-09-20T12:28:54.317Z,3.50
2022-09-20T12:31:33.616Z,4.20
2022-09-20T12:34:10.514Z,3.13
2022-09-20T12:36:43.135Z,3.50
2022-09-20T12:39:17.607Z,5.37
2022-09-20T12:42:12.049Z,4.70
2022-09-20T12:44:57.917Z,3.40
2022-09-20T12:47:34.696Z,3.03
2022-09-20T12:50:34.211Z,3.00
2022-09-20T12:53:04.307Z,2.37
2022-09-20T12:55:55.087Z,2.17
2022-09-20T12:58:33.693Z,2.00
2022-09-20T13:01:04.240Z,2.00
2022-09-20T13:03:40.502Z,2.30
2022-09-20T13:06:14.870Z,2.50
2022-09-20T13:09:00.135Z,2.50
2022-09-20T13:11:44.958Z,2.80
2022-09-20T13:14:26.868Z,3.20
2022-09-20T13:17:01.361Z,4.00
2022-09-20T13:19:34.731Z,5.70
2022-09-20T13:22:31.381Z,3.70
2022-09-20T13:25:05.505Z,2.53
2022-09-20T13:27:40.271Z,2.40
2022-09-20T13:30:30.274Z,2.00
2022-09-20T13:32:58.362Z,1.87
2022-09-20T13:35:32.460Z,1.90
2022-09-20T13:38:06.095Z,1.70
2022-09-20T13:40:41.500Z,1.60
2022-09-20T13:43:24.441Z,1.40
2022-09-20T13:46:07.559Z,1.70
2022-09-20T13:48:35.339Z,1.80
2022-09-20T13:51:02.728Z,1.40
2022-09-20T13:53:41.590Z,1.30
2022-09-20T13:56:23.712Z,1.70
2022-09-20T13:58:52.861Z,1.00
2022-09-20T14:01:28.359Z,1.20
2022-09-20T14:04:03.549Z,1.20
2022-09-20T14:06:31.916Z,1.10
2022-09-20T14:09:05.951Z,0.97
2022-09-20T14:11:37.419Z,1.10
2022-09-20T14:14:08.051Z,1.10
2022-09-20T14:16:39.711Z,1.00
2022-09-20T14:19:08.275Z,3.97
2022-09-20T14:21:37.308Z,1.63
2022-09-20T14:24:25.886Z,1.10
2022-09-20T14:27:16.074Z,1.10
2022-09-20T14:29:51.672Z,0.93
2022-09-20T14:32:18.971Z,1.60
2022-09-20T14:34:56.645Z,1.30
2022-09-20T14:37:44.723Z,1.80
2022-09-20T14:41:30.881Z,1.83
2022-09-20T14:44:02.698Z,1.83
2022-09-20T14:46:38.838Z,1.80
2022-09-20T14:49:25.489Z,1.47
2022-09-20T14:52:26.946Z,1.60
2022-09-20T14:55:00.614Z,1.80
2022-09-20T14:57:28.482Z,2.10
2022-09-20T14:59:59.218Z,1.80
2022-09-20T15:02:27.487Z,1.80
2022-09-20T15:05:00.940Z,2.07
2022-09-20T15:07:28.848Z,2.00
2022-09-20T15:09:56.176Z,2.20
2022-09-20T15:12:23.640Z,2.07
2022-09-20T15:14:51.045Z,2.30
2022-09-20T15:17:23.039Z,2.67
2022-09-20T15:19:51.764Z,2.90
2022-09-20T15:22:19.108Z,2.20
2022-09-20T15:24:47.985Z,2.20
2022-09-20T15:27:15.824Z,1.87
2022-09-20T15:29:43.202Z,1.60
2022-09-20T15:32:11.002Z,1.60
2022-09-20T15:34:38.535Z,1.57
2022-09-20T15:37:06.090Z,1.60
2022-09-20T15:39:33.456Z,2.00
2022-09-20T15:42:01.485Z,5.67
2022-09-20T15:44:29.405Z,4.63
2022-09-20T15:46:56.781Z,2.60
2022-09-20T15:49:24.114Z,4.30
2022-09-20T15:51:52.560Z,8.53
2022-09-20T15:54:19.969Z,6.80
2022-09-20T15:56:47.380Z,4.33
2022-09-20T15:59:16.095Z,5.17
2022-09-20T16:01:45.682Z,7.27
2022-09-20T16:04:21.022Z,9.40
2022-09-20T16:06:50.071Z,8.60
2022-09-20T16:09:18.316Z,8.63
2022-09-20T16:11:47.238Z,6.40
2022-09-20T16:14:15.009Z,4.20
2022-09-20T16:16:42.504Z,3.67
2022-09-20T16:19:24.946Z,5.37
2022-09-20T16:22:01.933Z,9.03
2022-09-20T16:24:34.182Z,7.37
2022-09-20T16:27:03.718Z,7.00
2022-09-20T16:29:31.693Z,5.67
2022-09-20T16:32:00.632Z,4.20
2022-09-20T16:34:31.275Z,3.00
2022-09-20T16:37:00.506Z,3.30
2022-09-20T16:39:29.480Z,3.30
2022-09-20T16:42:03.629Z,4.40
2022-09-20T16:44:35.031Z,5.80
2022-09-20T16:47:07.548Z,4.77
2022-09-20T16:49:36.275Z,4.77
2022-09-20T16:52:08.213Z,4.10
2022-09-20T16:54:37.099Z,3.80
2022-09-20T16:57:05.375Z,3.33
2022-09-20T16:59:32.772Z,3.73
2022-09-20T17:02:00.215Z,4.30
2022-09-20T17:04:27.623Z,4.07
2022-09-20T17:06:55.641Z,4.90
2022-09-20T17:09:23.019Z,4.10
2022-09-20T17:11:51.472Z,4.33
2022-09-20T17:14:20.680Z,4.17
2022-09-20T17:16:49.463Z,5.63
2022-09-20T17:19:19.326Z,7.37
2022-09-20T17:21:49.959Z,7.37
2022-09-20T17:24:22.175Z,5.40
2022-09-20T17:26:50.783Z,5.13
2022-09-20T17:29:19.929Z,8.13
2022-09-20T17:31:54.969Z,8.60
2022-09-20T17:34:23.854Z,8.03
2022-09-20T17:36:51.323Z,14.77
2022-09-20T17:39:18.863Z,11.80
2022-09-20T17:41:48.040Z,12.57
2022-09-20T17:44:16.822Z,11.60
2022-09-20T17:46:46.102Z,9.70
2022-09-20T17:49:16.261Z,11.47
2022-09-20T17:51:54.981Z,9.83
2022-09-20T17:54:23.527Z,7.97
2022-09-20T17:56:53.458Z,7.17
2022-09-20T17:59:21.073Z,5.47
2022-09-20T18:01:50.702Z,6.37
2022-09-20T18:04:20.933Z,5.50
2022-09-20T18:06:52.784Z,4.40
2022-09-20T18:09:24.184Z,4.60
2022-09-20T18:11:53.713Z,3.90
2022-09-20T18:14:23.361Z,4.40
2022-09-20T18:16:56.273Z,3.70
2022-09-20T18:19:23.745Z,3.33
2022-09-20T18:21:51.190Z,3.17
2022-09-20T18:24:18.783Z,4.50
2022-09-20T18:26:46.149Z,5.47
2022-09-20T18:29:20.424Z,3.50
2022-09-20T18:31:55.636Z,4.33
2022-09-20T18:34:32.032Z,2.90
2022-09-20T18:37:01.210Z,2.50
2022-09-20T18:39:33.594Z,2.40
2022-09-20T18:42:03.853Z,2.63
2022-09-20T18:44:34.478Z,2.40
2022-09-20T18:47:03.386Z,3.97
2022-09-20T18:49:34.462Z,3.40
2022-09-20T18:52:03.065Z,4.13
2022-09-20T18:54:32.117Z,4.40
2022-09-20T18:57:00.164Z,4.70
2022-09-20T18:59:28.198Z,5.40
2022-09-20T19:02:05.018Z,4.90
2022-09-20T19:04:38.451Z,3.73
2022-09-20T19:07:27.914Z,3.10
2022-09-20T19:10:03.486Z,3.20
2022-09-20T19:12:46.193Z,2.60
2022-09-20T19:15:34.463Z,3.43
2022-09-20T19:18:21.579Z,5.00
2022-09-20T19:20:58.807Z,4.63
2022-09-20T19:24:13.611Z,3.47
2022-09-20T19:26:42.101Z,3.30
2022-09-20T19:29:25.306Z,3.80
2022-09-20T19:31:58.968Z,4.20
2022-09-20T19:34:29.602Z,4.40
2022-09-20T19:37:18.833Z,3.20
2022-09-20T19:39:55.063Z,3.00
2022-09-20T19:42:36.142Z,4.00
2022-09-20T19:45:21.517Z,3.10
2022-09-20T19:48:24.493Z,5.43
2022-09-20T19:50:53.298Z,7.77
2022-09-20T19:53:24.220Z,5.30
2022-09-20T19:55:55.423Z,3.00
2022-09-20T19:58:23.532Z,2.90
2022-09-20T20:00:51.843Z,2.70
2022-09-20T20:03:19.566Z,4.03
2022-09-20T20:06:11.931Z,6.67
2022-09-20T20:08:48.704Z,6.27
2022-09-20T20:11:53.300Z,4.53
2022-09-20T20:14:47.280Z,3.90
2022-09-20T20:17:14.731Z,3.50
2022-09-20T20:19:49.299Z,3.17
2022-09-20T20:22:28.505Z,4.07
2022-09-20T20:24:56.878Z,4.40
2022-09-20T20:27:28.246Z,3.00
2022-09-20T20:29:58.311Z,2.97
2022-09-20T20:32:26.458Z,2.60
2022-09-20T20:34:55.300Z,2.50
2022-09-20T20:37:24.374Z,2.70
2022-09-20T20:39:52.172Z,2.60
2022-09-20T20:42:19.671Z,2.40
2022-09-20T20:44:47.976Z,2.73
2022-09-20T20:47:15.361Z,2.77
2022-09-20T20:49:42.714Z,2.77
2022-09-20T20:52:10.056Z,2.60
2022-09-20T20:54:37.509Z,2.60
2022-09-20T20:57:04.958Z,2.50
2022-09-20T20:59:32.309Z,2.50
2022-09-20T21:02:03.425Z,2.33
2022-09-20T21:04:33.454Z,2.27
2022-09-20T21:07:01.952Z,2.27
2022-09-20T21:09:29.284Z,2.63
2022-09-20T21:11:56.624Z,2.40
2022-09-20T21:14:23.926Z,2.60
2022-09-20T21:16:52.040Z,3.67
2022-09-20T21:19:20.221Z,2.80
2022-09-20T21:21:47.975Z,2.40
2022-09-20T21:24:19.291Z,2.53
2022-09-20T21:26:46.958Z,2.43
2022-09-20T21:29:15.867Z,2.70
2022-09-20T21:31:45.779Z,2.67
2022-09-20T21:34:15.413Z,2.80
2022-09-20T21:36:46.624Z,2.40
2022-09-20T21:39:14.466Z,2.70
2022-09-20T21:41:43.234Z,2.70
2022-09-20T21:44:10.801Z,2.80
2022-09-20T21:46:40.317Z,2.40
2022-09-20T21:49:10.021Z,2.43
2022-09-20T21:51:38.827Z,2.80
2022-09-20T21:54:06.305Z,2.60
2022-09-20T21:56:36.631Z,2.50
2022-09-20T21:59:06.237Z,2.40
2022-09-20T22:01:39.355Z,2.40
2022-09-20T22:04:09.468Z,2.30
2022-09-20T22:06:39.861Z,2.67
2022-09-20T22:09:09.688Z,2.40
2022-09-20T22:11:39.619Z,2.17
2022-09-20T22:14:08.743Z,2.30
2022-09-20T22:16:38.489Z,2.70
2022-09-20T22:19:07.937Z,2.43
2022-09-20T22:21:40.648Z,2.30
2022-09-20T22:24:10.522Z,2.50
2022-09-20T22:26:43.996Z,2.30
2022-09-20T22:29:11.359Z,2.20
2022-09-20T22:31:47.046Z,2.30
2022-09-20T22:34:22.202Z,2.40
2022-09-20T22:36:49.983Z,2.60
2022-09-20T22:39:17.351Z,3.23
2022-09-20T22:41:45.063Z,2.57
2022-09-20T22:44:12.392Z,2.83
2022-09-20T22:46:40.126Z,2.63
2022-09-20T22:49:08.376Z,2.30
2022-09-20T22:51:36.714Z,2.33
2022-09-20T22:54:09.588Z,2.30
2022-09-20T22:56:38.605Z,2.30
2022-09-20T22:59:08.503Z,2.30
2022-09-20T23:01:38.796Z,2.33
2022-09-20T23:04:08.599Z,2.20
2022-09-20T23:06:41.709Z,2.40
2022-09-20T23:09:11.716Z,2.70
2022-09-20T23:11:42.447Z,2.40
2022-09-20T23:14:13.618Z,2.50
2022-09-20T23:16:41.353Z,2.30
2022-09-20T23:19:09.978Z,2.23
2022-09-20T23:21:38.920Z,2.13
2022-09-20T23:24:08.776Z,2.20
2022-09-20T23:26:37.996Z,2.33
2022-09-20T23:29:11.029Z,2.40
2022-09-20T23:31:39.781Z,2.40
2022-09-20T23:34:08.300Z,2.50
2022-09-20T23:36:39.138Z,2.40
2022-09-20T23:39:07.749Z,2.50
2022-09-20T23:41:36.815Z,2.80
2022-09-20T23:44:06.580Z,2.80
2022-09-20T23:46:34.389Z,2.80
2022-09-20T23:49:02.484Z,2.53
2022-09-20T23:51:30.750Z,2.60
2022-09-20T23:53:58.741Z,2.40
2022-09-20T23:56:26.812Z,2.43
2022-09-20T23:58:54.265Z,2.50
